createdAt,value
2017-09-17T00:00:21.258Z,100.0
2017-09-17T00:01:22.686Z,100.0
2017-09-17T00:02:24.087Z,100.0
2017-09-17T00:03:25.485Z,100.0
2017-09-17T00:04:27.002Z,100.0
2017-09-17T00:05:28.397Z,100.0
2017-09-17T00:06:29.880Z,100.0
2017-09-17T00:07:31.280Z,100.0
2017-09-17T00:08:32.760Z,100.0
2017-09-17T00:09:34.158Z,100.0
2017-09-17T00:10:35.641Z,100.0
2017-09-17T00:11:37.038Z,100.0
2017-09-17T00:12:38.522Z,100.0
2017-09-17T00:13:39.921Z,100.0
2017-09-17T00:14:41.403Z,100.0
2017-09-17T00:15:42.801Z,100.0
2017-09-17T00:16:44.293Z,100.0
2017-09-17T00:17:45.693Z,100.0
2017-09-17T00:18:47.162Z,100.0
2017-09-17T00:19:48.560Z,100.0
2017-09-17T00:20:49.960Z,100.0
2017-09-17T00:21:51.382Z,100.0
2017-09-17T00:22:52.783Z,100.0
2017-09-17T00:23:54.181Z,100.0
2017-09-17T00:24:55.600Z,100.0
2017-09-17T00:25:56.999Z,100.0
2017-09-17T00:26:58.404Z,100.0
2017-09-17T00:27:59.861Z,100.0
2017-09-17T00:29:01.226Z,100.0
2017-09-17T00:30:02.624Z,100.0
2017-09-17T00:31:04.141Z,100.0
2017-09-17T00:32:05.547Z,100.0
2017-09-17T00:33:07.022Z,100.0
2017-09-17T00:34:08.421Z,100.0
2017-09-17T00:35:09.902Z,100.0
2017-09-17T00:36:11.307Z,100.0
2017-09-17T00:37:12.818Z,100.0
2017-09-17T00:38:14.184Z,100.0
2017-09-17T00:39:15.663Z,100.0
2017-09-17T00:40:17.066Z,100.0
2017-09-17T00:41:18.554Z,100.0
2017-09-17T00:42:19.987Z,100.0
2017-09-17T00:43:21.425Z,100.0
2017-09-17T00:44:22.823Z,100.0
2017-09-17T00:45:24.305Z,100.0
2017-09-17T00:46:25.706Z,100.0
2017-09-17T00:47:27.187Z,100.0
2017-09-17T00:48:28.588Z,100.0
2017-09-17T00:49:30.067Z,100.0
2017-09-17T00:50:31.464Z,100.0
2017-09-17T00:51:32.948Z,100.0
2017-09-17T00:52:34.347Z,100.0
2017-09-17T00:53:35.827Z,100.0
2017-09-17T00:54:37.229Z,100.0
2017-09-17T00:55:38.629Z,100.0
2017-09-17T00:56:40.046Z,100.0
2017-09-17T00:57:41.445Z,100.0
2017-09-17T00:58:42.844Z,100.0
2017-09-17T00:59:44.266Z,100.0
2017-09-17T01:00:45.665Z,100.0
2017-09-17T01:01:47.069Z,100.0
2017-09-17T01:02:48.487Z,100.0
2017-09-17T01:03:49.891Z,100.0
2017-09-17T01:04:51.392Z,100.0
2017-09-17T01:05:52.791Z,100.0
2017-09-17T01:06:54.192Z,100.0
2017-09-17T01:07:55.692Z,100.0
2017-09-17T01:08:57.092Z,100.0
2017-09-17T01:09:58.499Z,100.0
2017-09-17T01:11:00.038Z,100.0
2017-09-17T01:12:01.442Z,100.0
2017-09-17T01:13:02.895Z,100.0
2017-09-17T01:14:04.296Z,100.0
2017-09-17T01:15:05.776Z,100.0
2017-09-17T01:16:07.169Z,100.0
2017-09-17T01:17:08.646Z,100.0
2017-09-17T01:18:10.052Z,100.0
2017-09-17T01:19:11.529Z,100.0
2017-09-17T01:20:12.929Z,100.0
2017-09-17T01:21:14.326Z,100.0
2017-09-17T01:22:15.728Z,100.0
2017-09-17T01:23:17.128Z,100.0
2017-09-17T01:24:18.629Z,100.0
2017-09-17T01:25:20.033Z,100.0
2017-09-17T01:26:21.433Z,100.0
2017-09-17T01:27:22.847Z,100.0
2017-09-17T01:28:24.247Z,100.0
2017-09-17T01:29:25.650Z,100.0
2017-09-17T01:30:27.065Z,100.0
2017-09-17T01:31:28.470Z,100.0
2017-09-17T01:32:29.948Z,100.0
2017-09-17T01:33:31.345Z,100.0
2017-09-17T01:34:32.828Z,100.0
2017-09-17T01:35:34.230Z,100.0
2017-09-17T01:36:35.709Z,100.0
2017-09-17T01:37:37.110Z,100.0
2017-09-17T01:38:38.589Z,100.0
2017-09-17T01:39:39.990Z,100.0
2017-09-17T01:40:41.474Z,100.0
2017-09-17T01:41:42.875Z,100.0
2017-09-17T01:42:44.351Z,100.0
2017-09-17T01:43:45.751Z,100.0
2017-09-17T01:44:47.239Z,100.0
2017-09-17T01:45:48.639Z,100.0
2017-09-17T01:46:51.135Z,100.0
2017-09-17T01:47:52.534Z,100.0
2017-09-17T01:48:54.015Z,100.0
2017-09-17T01:49:55.414Z,99.8
2017-09-17T01:50:56.918Z,100.0
2017-09-17T01:51:58.315Z,99.8
2017-09-17T01:52:59.777Z,99.7
2017-09-17T01:54:01.178Z,100.0
2017-09-17T01:55:02.660Z,100.0
2017-09-17T01:56:04.063Z,99.7
2017-09-17T01:57:05.537Z,99.8
2017-09-17T01:58:06.943Z,100.0
2017-09-17T01:59:08.420Z,100.0
2017-09-17T02:00:09.820Z,100.0
2017-09-17T02:01:11.299Z,99.3
2017-09-17T02:02:12.696Z,99.8
2017-09-17T02:03:14.180Z,99.8
2017-09-17T02:04:15.581Z,99.6
2017-09-17T02:05:17.076Z,99.4
2017-09-17T02:06:18.476Z,99.9
2017-09-17T02:07:19.946Z,99.7
2017-09-17T02:08:21.343Z,99.2
2017-09-17T02:09:22.823Z,99.6
2017-09-17T02:10:24.220Z,99.8
2017-09-17T02:11:25.702Z,99.6
2017-09-17T02:12:27.100Z,99.8
2017-09-17T02:13:28.611Z,100.0
2017-09-17T02:14:30.012Z,99.5
2017-09-17T02:15:31.463Z,99.6
2017-09-17T02:16:32.864Z,99.5
2017-09-17T02:17:34.346Z,100.0
2017-09-17T02:18:35.741Z,99.9
2017-09-17T02:19:37.225Z,99.8
2017-09-17T02:20:38.649Z,99.8
2017-09-17T02:21:40.111Z,99.5
2017-09-17T02:22:41.505Z,99.4
2017-09-17T02:23:42.902Z,99.6
2017-09-17T02:24:44.325Z,99.9
2017-09-17T02:25:45.725Z,99.5
2017-09-17T02:26:47.126Z,99.5
2017-09-17T02:27:48.546Z,100.0
2017-09-17T02:28:49.948Z,100.0
2017-09-17T02:29:51.352Z,99.7
2017-09-17T02:30:52.873Z,99.4
2017-09-17T02:31:54.276Z,99.1
2017-09-17T02:32:55.673Z,99.2
2017-09-17T02:33:57.085Z,99.7
2017-09-17T02:34:58.507Z,99.6
2017-09-17T02:35:59.911Z,99.6
2017-09-17T02:37:01.405Z,99.6
2017-09-17T02:38:02.803Z,99.0
2017-09-17T02:39:04.198Z,99.2
2017-09-17T02:40:05.609Z,99.7
2017-09-17T02:41:07.012Z,99.6
2017-09-17T02:42:08.501Z,99.6
2017-09-17T02:43:09.915Z,99.6
2017-09-17T02:44:11.317Z,99.6
2017-09-17T02:45:12.830Z,99.6
2017-09-17T02:46:14.221Z,99.6
2017-09-17T02:47:15.618Z,99.4
2017-09-17T02:48:17.047Z,99.6
2017-09-17T02:49:18.440Z,99.6
2017-09-17T02:50:19.929Z,99.6
2017-09-17T02:51:21.324Z,99.6
2017-09-17T02:52:22.739Z,99.7
2017-09-17T02:53:24.257Z,99.3
2017-09-17T02:54:25.656Z,99.6
2017-09-17T02:55:27.052Z,99.7
2017-09-17T02:56:28.567Z,99.7
2017-09-17T02:57:29.966Z,99.2
2017-09-17T02:58:31.445Z,99.7
2017-09-17T02:59:32.843Z,99.6
2017-09-17T03:00:34.329Z,100.0
2017-09-17T03:01:35.728Z,100.0
2017-09-17T03:02:37.129Z,99.9
2017-09-17T03:03:38.545Z,99.5
2017-09-17T03:04:39.944Z,100.0
2017-09-17T03:05:41.368Z,99.6
2017-09-17T03:06:42.866Z,99.4
2017-09-17T03:07:44.259Z,99.4
2017-09-17T03:08:45.661Z,99.6
2017-09-17T03:09:47.085Z,99.6
2017-09-17T03:10:48.487Z,99.6
2017-09-17T03:11:49.887Z,99.6
2017-09-17T03:12:51.299Z,100.0
2017-09-17T03:13:52.745Z,99.7
2017-09-17T03:14:54.147Z,99.5
2017-09-17T03:15:55.625Z,100.0
2017-09-17T03:16:57.022Z,100.0
2017-09-17T03:17:58.424Z,100.0
2017-09-17T03:18:59.843Z,100.0
2017-09-17T03:20:01.245Z,100.0
2017-09-17T03:21:02.645Z,100.0
2017-09-17T03:22:04.064Z,100.0
2017-09-17T03:23:05.462Z,100.0
2017-09-17T03:24:06.943Z,100.0
2017-09-17T03:25:08.340Z,100.0
2017-09-17T03:26:09.825Z,100.0
2017-09-17T03:27:11.228Z,100.0
2017-09-17T03:28:12.704Z,100.0
2017-09-17T03:29:14.115Z,100.0
2017-09-17T03:30:15.588Z,100.0
2017-09-17T03:31:16.984Z,100.0
2017-09-17T03:32:18.465Z,100.0
2017-09-17T03:33:19.866Z,100.0
2017-09-17T03:34:21.348Z,100.0
2017-09-17T03:35:22.750Z,100.0
2017-09-17T03:36:24.227Z,100.0
2017-09-17T03:37:25.626Z,100.0
2017-09-17T03:38:27.024Z,100.0
2017-09-17T03:39:28.446Z,100.0
2017-09-17T03:40:29.845Z,100.0
2017-09-17T03:41:31.251Z,100.0
2017-09-17T03:42:32.666Z,100.0
2017-09-17T03:43:34.064Z,100.0
2017-09-17T03:44:35.461Z,100.0
2017-09-17T03:45:36.882Z,100.0
2017-09-17T03:46:38.283Z,100.0
2017-09-17T03:47:39.682Z,100.0
2017-09-17T03:48:41.102Z,100.0
2017-09-17T03:49:42.506Z,100.0
2017-09-17T03:50:43.981Z,100.0
2017-09-17T03:51:45.383Z,100.0
2017-09-17T03:52:46.868Z,100.0
2017-09-17T03:53:48.265Z,100.0
2017-09-17T03:54:49.745Z,100.0
2017-09-17T03:55:51.147Z,100.0
2017-09-17T03:56:52.626Z,100.0
2017-09-17T03:57:54.024Z,100.0
2017-09-17T03:58:55.508Z,100.0
2017-09-17T03:59:56.915Z,100.0
2017-09-17T04:00:58.391Z,100.0
2017-09-17T04:01:59.801Z,100.0
2017-09-17T04:03:01.202Z,100.0
2017-09-17T04:04:02.710Z,100.0
2017-09-17T04:05:04.108Z,100.0
2017-09-17T04:06:05.504Z,100.0
2017-09-17T04:07:06.929Z,100.0
2017-09-17T04:08:08.335Z,100.0
2017-09-17T04:09:09.731Z,100.0
2017-09-17T04:10:11.146Z,100.0
2017-09-17T04:11:12.544Z,100.0
2017-09-17T04:12:14.026Z,100.0
2017-09-17T04:13:15.425Z,100.0
2017-09-17T04:14:16.827Z,100.0
2017-09-17T04:15:18.246Z,100.0
2017-09-17T04:16:19.643Z,100.0
2017-09-17T04:17:21.047Z,100.0
2017-09-17T04:18:22.462Z,100.0
2017-09-17T04:19:23.860Z,100.0
2017-09-17T04:20:25.351Z,100.0
2017-09-17T04:21:26.742Z,100.0
2017-09-17T04:22:28.242Z,100.0
2017-09-17T04:23:29.643Z,100.0
2017-09-17T04:24:31.105Z,100.0
2017-09-17T04:25:32.503Z,100.0
2017-09-17T04:26:33.987Z,100.0
2017-09-17T04:27:35.386Z,100.0
2017-09-17T04:28:36.871Z,100.0
2017-09-17T04:29:38.273Z,100.0
2017-09-17T04:30:39.747Z,100.0
2017-09-17T04:31:41.152Z,100.0
2017-09-17T04:32:42.627Z,100.0
2017-09-17T04:33:44.023Z,100.0
2017-09-17T04:34:45.510Z,100.0
2017-09-17T04:35:46.908Z,100.0
2017-09-17T04:36:48.389Z,100.0
2017-09-17T04:37:49.789Z,100.0
2017-09-17T04:38:51.189Z,100.0
2017-09-17T04:39:52.608Z,100.0
2017-09-17T04:40:54.005Z,100.0
2017-09-17T04:41:55.404Z,100.0
2017-09-17T04:42:56.827Z,100.0
2017-09-17T04:43:58.225Z,100.0
2017-09-17T04:44:59.625Z,100.0
2017-09-17T04:46:01.046Z,100.0
2017-09-17T04:47:02.443Z,100.0
2017-09-17T04:48:03.841Z,100.0
2017-09-17T04:49:05.264Z,100.0
2017-09-17T04:50:06.663Z,100.0
2017-09-17T04:51:08.060Z,100.0
2017-09-17T04:52:09.482Z,100.0
2017-09-17T04:53:10.893Z,100.0
2017-09-17T04:54:12.291Z,100.0
2017-09-17T04:55:13.803Z,100.0
2017-09-17T04:56:15.203Z,100.0
2017-09-17T04:57:16.684Z,100.0
2017-09-17T04:58:18.084Z,100.0
2017-09-17T04:59:19.482Z,100.0
2017-09-17T05:00:20.923Z,100.0
2017-09-17T05:01:22.318Z,100.0
2017-09-17T05:02:23.717Z,100.0
2017-09-17T05:03:25.327Z,100.0
2017-09-17T05:04:26.734Z,100.0
2017-09-17T05:05:28.136Z,100.0
2017-09-17T05:06:29.649Z,100.0
2017-09-17T05:07:31.049Z,100.0
2017-09-17T05:08:32.448Z,100.0
2017-09-17T05:09:33.991Z,100.0
2017-09-17T05:10:35.387Z,100.0
2017-09-17T05:11:36.861Z,100.0
2017-09-17T05:12:38.254Z,100.0
2017-09-17T05:13:39.731Z,100.0
2017-09-17T05:14:41.139Z,100.0
2017-09-17T05:15:42.613Z,100.0
2017-09-17T05:16:44.014Z,100.0
2017-09-17T05:17:45.491Z,100.0
2017-09-17T05:18:46.895Z,100.0
2017-09-17T05:19:48.299Z,100.0
2017-09-17T05:20:49.812Z,100.0
2017-09-17T05:21:51.386Z,100.0
2017-09-17T05:22:52.827Z,100.0
2017-09-17T05:23:54.285Z,100.0
2017-09-17T05:24:55.682Z,100.0
2017-09-17T05:25:57.123Z,100.0
2017-09-17T05:26:58.554Z,100.0
2017-09-17T05:28:00.006Z,100.0
2017-09-17T05:29:01.408Z,100.0
2017-09-17T05:30:02.880Z,100.0
2017-09-17T05:31:04.285Z,100.0
2017-09-17T05:32:05.766Z,100.0
2017-09-17T05:33:07.165Z,100.0
2017-09-17T05:34:08.645Z,100.0
2017-09-17T05:35:10.050Z,100.0
2017-09-17T05:36:11.523Z,100.0
2017-09-17T05:37:12.926Z,100.0
2017-09-17T05:38:14.512Z,100.0
2017-09-17T05:39:15.909Z,100.0
2017-09-17T05:40:17.317Z,100.0
2017-09-17T05:41:18.829Z,100.0
2017-09-17T05:42:20.230Z,100.0
2017-09-17T05:43:21.678Z,100.0
2017-09-17T05:44:23.149Z,100.0
2017-09-17T05:45:24.552Z,100.0
2017-09-17T05:46:26.029Z,100.0
2017-09-17T05:47:27.437Z,100.0
2017-09-17T05:48:28.912Z,100.0
2017-09-17T05:49:30.369Z,100.0
2017-09-17T05:50:31.791Z,100.0
2017-09-17T05:51:33.196Z,100.0
2017-09-17T05:52:34.674Z,100.0
2017-09-17T05:53:36.073Z,100.0
2017-09-17T05:54:37.472Z,100.0
2017-09-17T05:55:38.891Z,100.0
2017-09-17T05:56:40.292Z,100.0
2017-09-17T05:57:41.692Z,100.0
2017-09-17T05:58:43.112Z,100.0
2017-09-17T05:59:44.513Z,100.0
2017-09-17T06:00:45.991Z,100.0
2017-09-17T06:01:47.398Z,100.0
2017-09-17T06:02:48.869Z,100.0
2017-09-17T06:03:50.274Z,100.0
2017-09-17T06:04:51.751Z,100.0
2017-09-17T06:05:53.190Z,100.0
2017-09-17T06:06:54.632Z,100.0
2017-09-17T06:07:56.036Z,100.0
2017-09-17T06:08:57.530Z,100.0
2017-09-17T06:09:58.925Z,100.0
2017-09-17T06:11:00.394Z,100.0
2017-09-17T06:12:01.822Z,100.0
2017-09-17T06:13:03.274Z,100.0
2017-09-17T06:14:04.673Z,100.0
2017-09-17T06:15:06.155Z,100.0
2017-09-17T06:16:07.561Z,100.0
2017-09-17T06:17:09.043Z,100.0
2017-09-17T06:18:10.457Z,100.0
2017-09-17T06:19:11.915Z,100.0
2017-09-17T06:20:13.319Z,100.0
2017-09-17T06:21:14.799Z,100.0
2017-09-17T06:22:16.198Z,100.0
2017-09-17T06:23:17.676Z,100.0
2017-09-17T06:24:19.077Z,100.0
2017-09-17T06:25:20.562Z,100.0
2017-09-17T06:26:21.973Z,100.0
2017-09-17T06:27:23.447Z,100.0
2017-09-17T06:28:24.849Z,100.0
2017-09-17T06:29:26.323Z,100.0
2017-09-17T06:30:27.722Z,100.0
2017-09-17T06:31:29.204Z,100.0
2017-09-17T06:32:30.605Z,100.0
2017-09-17T06:33:32.009Z,100.0
2017-09-17T06:34:33.522Z,100.0
2017-09-17T06:35:34.935Z,100.0
2017-09-17T06:36:36.332Z,100.0
2017-09-17T06:37:37.846Z,100.0
2017-09-17T06:38:39.252Z,100.0
2017-09-17T06:39:40.677Z,100.0
2017-09-17T06:40:42.166Z,100.0
2017-09-17T06:41:43.575Z,100.0
2017-09-17T06:42:45.052Z,100.0
2017-09-17T06:43:46.458Z,100.0
2017-09-17T06:44:47.926Z,100.0
2017-09-17T06:45:49.330Z,100.0
2017-09-17T06:46:50.816Z,100.0
2017-09-17T06:47:52.223Z,100.0
2017-09-17T06:48:53.687Z,100.0
2017-09-17T06:49:55.090Z,100.0
2017-09-17T06:50:56.573Z,100.0
2017-09-17T06:51:57.979Z,100.0
2017-09-17T06:52:59.454Z,100.0
2017-09-17T06:54:00.863Z,100.0
2017-09-17T06:55:02.277Z,100.0
2017-09-17T06:56:03.769Z,100.0
2017-09-17T06:57:05.173Z,100.0
2017-09-17T06:58:06.576Z,100.0
2017-09-17T06:59:08.106Z,100.0
2017-09-17T07:00:09.960Z,100.0
2017-09-17T07:01:11.362Z,100.0
2017-09-17T07:02:12.817Z,100.0
2017-09-17T07:03:14.223Z,100.0
2017-09-17T07:04:15.704Z,100.0
2017-09-17T07:05:17.108Z,100.0
2017-09-17T07:06:18.512Z,100.0
2017-09-17T07:07:20.022Z,100.0
2017-09-17T07:08:21.429Z,100.0
2017-09-17T07:09:22.833Z,100.0
2017-09-17T07:10:24.342Z,100.0
2017-09-17T07:11:25.747Z,100.0
2017-09-17T07:12:27.151Z,100.0
2017-09-17T07:13:28.662Z,100.0
2017-09-17T07:14:30.069Z,100.0
2017-09-17T07:15:31.484Z,100.0
2017-09-17T07:16:32.987Z,100.0
2017-09-17T07:17:34.392Z,100.0
2017-09-17T07:18:35.867Z,100.0
2017-09-17T07:19:37.268Z,100.0
2017-09-17T07:20:38.746Z,100.0
2017-09-17T07:21:40.158Z,100.0
2017-09-17T07:22:41.628Z,100.0
2017-09-17T07:23:43.048Z,100.0
2017-09-17T07:24:44.518Z,100.0
2017-09-17T07:25:45.923Z,100.0
2017-09-17T07:26:47.418Z,100.0
2017-09-17T07:27:48.824Z,100.0
2017-09-17T07:28:50.273Z,100.0
2017-09-17T07:29:51.684Z,100.0
2017-09-17T07:30:53.118Z,100.0
2017-09-17T07:31:54.607Z,100.0
2017-09-17T07:32:56.016Z,100.0
2017-09-17T07:33:57.419Z,100.0
2017-09-17T07:34:58.935Z,100.0
2017-09-17T07:36:00.343Z,100.0
2017-09-17T07:37:01.749Z,100.0
2017-09-17T07:38:03.236Z,100.0
2017-09-17T07:39:04.639Z,100.0
2017-09-17T07:40:06.042Z,100.0
2017-09-17T07:41:07.557Z,100.0
2017-09-17T07:42:08.964Z,100.0
2017-09-17T07:43:10.436Z,100.0
2017-09-17T07:44:11.841Z,100.0
2017-09-17T07:45:13.316Z,100.0
2017-09-17T07:46:14.744Z,100.0
2017-09-17T07:47:16.197Z,100.0
2017-09-17T07:48:17.606Z,100.0
2017-09-17T07:49:19.089Z,100.0
2017-09-17T07:50:20.489Z,100.0
2017-09-17T07:51:21.959Z,100.0
2017-09-17T07:52:23.371Z,100.0
2017-09-17T07:53:24.838Z,100.0
2017-09-17T07:54:26.242Z,100.0
2017-09-17T07:55:27.825Z,100.0
2017-09-17T07:56:29.232Z,100.0
2017-09-17T07:57:30.950Z,100.0
2017-09-17T07:58:32.366Z,100.0
2017-09-17T07:59:33.998Z,100.0
2017-09-17T08:00:35.406Z,100.0
2017-09-17T08:01:36.810Z,100.0
2017-09-17T08:02:38.520Z,100.0
2017-09-17T08:03:39.928Z,100.0
2017-09-17T08:04:41.333Z,100.0
2017-09-17T08:05:43.063Z,100.0
2017-09-17T08:06:44.474Z,100.0
2017-09-17T08:07:45.881Z,100.0
2017-09-17T08:08:47.600Z,100.0
2017-09-17T08:09:49.009Z,100.0
2017-09-17T08:10:50.420Z,100.0
2017-09-17T08:11:52.100Z,100.0
2017-09-17T08:12:53.507Z,100.0
2017-09-17T08:13:54.912Z,100.0
2017-09-17T08:14:56.624Z,100.0
2017-09-17T08:15:58.033Z,100.0
2017-09-17T08:16:59.434Z,100.0
2017-09-17T08:18:01.152Z,100.0
2017-09-17T08:19:02.564Z,100.0
2017-09-17T08:20:03.970Z,100.0
2017-09-17T08:21:05.673Z,100.0
2017-09-17T08:22:07.081Z,100.0
2017-09-17T08:23:08.765Z,100.0
2017-09-17T08:24:10.175Z,100.0
2017-09-17T08:25:11.644Z,100.0
2017-09-17T08:26:13.050Z,100.0
2017-09-17T08:27:14.459Z,100.0
2017-09-17T08:28:15.867Z,100.0
2017-09-17T08:29:17.407Z,100.0
2017-09-17T08:30:18.812Z,100.0
2017-09-17T08:31:20.218Z,100.0
2017-09-17T08:32:21.939Z,100.0
2017-09-17T08:33:23.345Z,100.0
2017-09-17T08:34:24.753Z,100.0
2017-09-17T08:35:26.459Z,100.0
2017-09-17T08:36:27.866Z,100.0
2017-09-17T08:37:29.271Z,100.0
2017-09-17T08:38:30.983Z,100.0
2017-09-17T08:39:32.388Z,100.0
2017-09-17T08:40:34.066Z,100.0
2017-09-17T08:41:35.478Z,100.0
2017-09-17T08:42:37.158Z,100.0
2017-09-17T08:43:38.561Z,100.0
2017-09-17T08:44:40.238Z,100.0
2017-09-17T08:45:41.648Z,100.0
2017-09-17T08:46:43.087Z,100.0
2017-09-17T08:47:44.766Z,100.0
2017-09-17T08:48:46.175Z,100.0
2017-09-17T08:49:47.583Z,100.0
2017-09-17T08:50:49.291Z,100.0
2017-09-17T08:51:50.696Z,100.0
2017-09-17T08:52:52.099Z,98.3
2017-09-17T08:53:53.815Z,97.6
2017-09-17T08:54:55.220Z,98.6
2017-09-17T08:55:56.903Z,99.5
2017-09-17T08:56:58.309Z,99.1
2017-09-17T08:57:59.717Z,99.4
2017-09-17T08:59:01.454Z,99.6
2017-09-17T09:00:02.861Z,97.5
2017-09-17T09:01:04.264Z,98.7
2017-09-17T09:02:05.950Z,98.7
2017-09-17T09:03:07.356Z,99.2
2017-09-17T09:04:08.765Z,98.8
2017-09-17T09:05:10.484Z,100.0
2017-09-17T09:06:11.887Z,99.9
2017-09-17T09:07:13.290Z,99.8
2017-09-17T09:08:15.004Z,100.0
2017-09-17T09:09:16.409Z,99.8
2017-09-17T09:10:17.814Z,100.0
2017-09-17T09:11:19.530Z,98.8
2017-09-17T09:12:20.936Z,99.3
2017-09-17T09:13:22.613Z,99.8
2017-09-17T09:14:24.020Z,99.0
2017-09-17T09:15:25.700Z,99.1
2017-09-17T09:16:27.113Z,98.2
2017-09-17T09:17:28.522Z,98.0
2017-09-17T09:18:30.225Z,98.2
2017-09-17T09:19:31.638Z,97.6
2017-09-17T09:20:33.048Z,97.5
2017-09-17T09:21:34.751Z,97.3
2017-09-17T09:22:36.173Z,94.5
2017-09-17T09:23:37.584Z,94.2
2017-09-17T09:24:39.280Z,92.9
2017-09-17T09:25:40.687Z,90.8
2017-09-17T09:26:42.093Z,88.9
2017-09-17T09:27:43.502Z,88.1
2017-09-17T09:28:44.937Z,90.2
2017-09-17T09:29:46.343Z,88.8
2017-09-17T09:30:47.817Z,88.3
2017-09-17T09:31:49.224Z,89.5
2017-09-17T09:32:50.702Z,90.2
2017-09-17T09:33:52.103Z,91.2
2017-09-17T09:34:53.593Z,90.7
2017-09-17T09:35:54.988Z,89.1
2017-09-17T09:36:56.466Z,89.4
2017-09-17T09:37:57.862Z,86.5
2017-09-17T09:38:59.342Z,86.7
2017-09-17T09:40:00.968Z,87.4
2017-09-17T09:41:02.502Z,85.9
2017-09-17T09:42:03.907Z,86.6
2017-09-17T09:43:05.406Z,85.9
2017-09-17T09:44:06.811Z,83.8
2017-09-17T09:45:08.289Z,83.6
2017-09-17T09:46:09.723Z,85.6
2017-09-17T09:47:11.131Z,85.0
2017-09-17T09:48:12.618Z,83.9
2017-09-17T09:49:14.017Z,82.6
2017-09-17T09:50:15.422Z,83.1
2017-09-17T09:51:16.939Z,81.8
2017-09-17T09:52:18.344Z,82.4
2017-09-17T09:53:19.783Z,83.4
2017-09-17T09:54:21.250Z,83.3
2017-09-17T09:55:22.656Z,82.7
2017-09-17T09:56:24.062Z,81.1
2017-09-17T09:57:25.573Z,79.4
2017-09-17T09:58:26.977Z,80.3
2017-09-17T09:59:28.388Z,80.5
2017-09-17T10:00:29.894Z,79.1
2017-09-17T10:01:31.299Z,77.6
2017-09-17T10:02:32.707Z,75.8
2017-09-17T10:03:34.214Z,75.1
2017-09-17T10:04:35.621Z,75.1
2017-09-17T10:05:37.029Z,77.8
2017-09-17T10:06:38.536Z,79.3
2017-09-17T10:07:39.941Z,79.5
2017-09-17T10:08:41.345Z,78.3
2017-09-17T10:09:42.857Z,78.7
2017-09-17T10:10:44.263Z,78.6
2017-09-17T10:11:45.672Z,76.7
2017-09-17T10:12:47.179Z,78.3
2017-09-17T10:13:48.589Z,77.6
2017-09-17T10:14:49.995Z,76.9
2017-09-17T10:15:51.501Z,75.8
2017-09-17T10:16:52.907Z,77.6
2017-09-17T10:17:54.312Z,76.7
2017-09-17T10:18:55.827Z,75.5
2017-09-17T10:19:57.233Z,75.4
2017-09-17T10:20:58.721Z,76.7
2017-09-17T10:22:00.133Z,75.4
2017-09-17T10:23:01.548Z,73.8
2017-09-17T10:24:03.037Z,75.5
2017-09-17T10:25:04.445Z,74.2
2017-09-17T10:26:05.858Z,73.7
2017-09-17T10:27:07.340Z,72.8
2017-09-17T10:28:08.760Z,73.4
2017-09-17T10:29:10.184Z,74.1
2017-09-17T10:30:11.675Z,72.5
2017-09-17T10:31:13.103Z,70.7
2017-09-17T10:32:14.494Z,72.2
2017-09-17T10:33:17.009Z,73.0
2017-09-17T10:34:18.415Z,73.0
2017-09-17T10:35:19.844Z,73.5
2017-09-17T10:36:21.348Z,73.5
2017-09-17T10:37:22.753Z,73.7
2017-09-17T10:38:24.170Z,74.4
2017-09-17T10:39:25.654Z,75.0
2017-09-17T10:40:27.061Z,74.7
2017-09-17T10:41:28.470Z,71.8
2017-09-17T10:42:29.969Z,71.3
2017-09-17T10:43:31.382Z,70.8
2017-09-17T10:44:32.791Z,71.8
2017-09-17T10:45:34.292Z,71.9
2017-09-17T10:46:35.697Z,73.6
2017-09-17T10:47:37.104Z,73.5
2017-09-17T10:48:38.614Z,73.1
2017-09-17T10:49:40.023Z,73.9
2017-09-17T10:50:41.495Z,76.9
2017-09-17T10:51:42.906Z,77.5
2017-09-17T10:52:44.377Z,77.6
2017-09-17T10:53:45.781Z,78.9
2017-09-17T10:54:47.256Z,78.9
2017-09-17T10:55:48.661Z,80.5
2017-09-17T10:56:50.135Z,79.0
2017-09-17T10:57:51.540Z,79.5
2017-09-17T10:58:52.949Z,79.3
2017-09-17T10:59:54.461Z,79.6
2017-09-17T11:00:55.862Z,79.6
2017-09-17T11:01:57.266Z,78.1
2017-09-17T11:02:58.779Z,79.7
2017-09-17T11:04:00.186Z,80.8
2017-09-17T11:05:01.661Z,80.7
2017-09-17T11:06:03.115Z,81.3
2017-09-17T11:07:04.541Z,81.5
2017-09-17T11:08:05.943Z,82.0
2017-09-17T11:09:07.350Z,82.9
2017-09-17T11:10:08.861Z,84.2
2017-09-17T11:11:10.267Z,83.8
2017-09-17T11:12:11.674Z,84.9
2017-09-17T11:13:13.181Z,83.8
2017-09-17T11:14:14.585Z,83.8
2017-09-17T11:15:15.990Z,82.8
2017-09-17T11:16:17.503Z,83.1
2017-09-17T11:17:18.906Z,83.3
2017-09-17T11:18:20.336Z,83.8
2017-09-17T11:19:21.822Z,85.0
2017-09-17T11:20:23.231Z,83.7
2017-09-17T11:21:24.735Z,84.8
2017-09-17T11:22:26.140Z,85.5
2017-09-17T11:23:27.546Z,84.3
2017-09-17T11:24:29.029Z,81.9
2017-09-17T11:25:30.434Z,79.9
2017-09-17T11:26:31.838Z,80.8
2017-09-17T11:27:33.348Z,81.0
2017-09-17T11:28:34.752Z,79.8
2017-09-17T11:29:36.159Z,80.9
2017-09-17T11:30:37.669Z,78.8
2017-09-17T11:31:39.072Z,77.4
2017-09-17T11:32:40.478Z,79.2
2017-09-17T11:33:41.989Z,80.5
2017-09-17T11:34:43.397Z,79.8
2017-09-17T11:35:44.896Z,79.2
2017-09-17T11:36:46.301Z,76.8
2017-09-17T11:37:47.751Z,77.6
2017-09-17T11:38:49.156Z,76.2
2017-09-17T11:39:50.632Z,78.3
2017-09-17T11:40:52.036Z,78.2
2017-09-17T11:41:53.517Z,78.0
2017-09-17T11:42:54.919Z,76.8
2017-09-17T11:43:56.392Z,76.8
2017-09-17T11:44:57.796Z,78.2
2017-09-17T11:45:59.273Z,78.2
2017-09-17T11:47:00.678Z,77.5
2017-09-17T11:48:02.155Z,76.8
2017-09-17T11:49:03.559Z,77.3
2017-09-17T11:50:06.059Z,78.7
2017-09-17T11:51:07.463Z,76.1
2017-09-17T11:52:08.941Z,75.0
2017-09-17T11:53:10.344Z,74.6
2017-09-17T11:54:11.748Z,74.3
2017-09-17T11:55:13.160Z,72.7
2017-09-17T11:56:14.600Z,75.0
2017-09-17T11:57:16.008Z,76.1
2017-09-17T11:58:17.415Z,77.9
2017-09-17T11:59:18.934Z,75.6
2017-09-17T12:00:20.344Z,77.3
2017-09-17T12:01:21.765Z,77.4
2017-09-17T12:02:23.245Z,76.9
2017-09-17T12:03:24.644Z,77.7
2017-09-17T12:04:26.051Z,78.1
2017-09-17T12:05:27.575Z,77.7
2017-09-17T12:06:28.979Z,78.4
2017-09-17T12:07:30.441Z,78.9
2017-09-17T12:08:31.846Z,78.2
2017-09-17T12:09:33.321Z,78.2
2017-09-17T12:10:34.727Z,79.4
2017-09-17T12:11:36.205Z,81.1
2017-09-17T12:12:37.611Z,81.3
2017-09-17T12:13:39.085Z,81.7
2017-09-17T12:14:40.493Z,81.3
2017-09-17T12:15:41.911Z,81.9
2017-09-17T12:16:43.406Z,82.2
2017-09-17T12:17:44.815Z,81.7
2017-09-17T12:18:46.230Z,82.7
2017-09-17T12:19:47.729Z,82.8
2017-09-17T12:20:49.136Z,83.1
2017-09-17T12:21:50.615Z,82.2
2017-09-17T12:22:52.010Z,83.4
2017-09-17T12:23:53.496Z,82.0
2017-09-17T12:24:54.894Z,83.6
2017-09-17T12:25:57.407Z,81.7
2017-09-17T12:26:58.811Z,79.7
2017-09-17T12:28:00.274Z,78.0
2017-09-17T12:29:01.702Z,79.6
2017-09-17T12:30:03.154Z,81.2
2017-09-17T12:31:04.562Z,82.3
2017-09-17T12:32:06.034Z,83.2
2017-09-17T12:33:07.437Z,83.0
2017-09-17T12:34:08.916Z,81.2
2017-09-17T12:35:10.345Z,82.8
2017-09-17T12:36:11.764Z,82.7
2017-09-17T12:37:13.248Z,83.1
2017-09-17T12:38:14.654Z,81.5
2017-09-17T12:39:16.062Z,78.9
2017-09-17T12:40:17.556Z,78.9
2017-09-17T12:41:18.966Z,79.9
2017-09-17T12:42:20.441Z,80.0
2017-09-17T12:43:21.846Z,78.7
2017-09-17T12:44:23.255Z,80.1
2017-09-17T12:45:24.763Z,79.6
2017-09-17T12:46:26.166Z,77.9
2017-09-17T12:47:27.567Z,76.8
2017-09-17T12:48:29.082Z,77.7
2017-09-17T12:49:30.486Z,78.3
2017-09-17T12:50:31.899Z,78.4
2017-09-17T12:51:33.418Z,76.4
2017-09-17T12:52:34.829Z,76.0
2017-09-17T12:53:36.284Z,76.9
2017-09-17T12:54:37.718Z,74.6
2017-09-17T12:55:39.162Z,73.4
2017-09-17T12:56:40.574Z,75.2
2017-09-17T12:57:42.062Z,75.1
2017-09-17T12:58:43.469Z,69.4
2017-09-17T12:59:44.941Z,69.9
2017-09-17T13:00:46.345Z,71.4
2017-09-17T13:01:47.805Z,73.1
2017-09-17T13:02:49.208Z,72.0
2017-09-17T13:03:50.684Z,73.7
2017-09-17T13:04:52.120Z,75.7
2017-09-17T13:05:53.566Z,78.0
2017-09-17T13:06:54.971Z,75.3
2017-09-17T13:07:56.446Z,75.0
2017-09-17T13:08:57.853Z,76.8
2017-09-17T13:09:59.257Z,77.4
2017-09-17T13:11:00.770Z,74.9
2017-09-17T13:12:02.173Z,74.4
2017-09-17T13:13:03.579Z,74.5
2017-09-17T13:14:05.088Z,75.0
2017-09-17T13:15:06.494Z,75.8
2017-09-17T13:16:07.900Z,76.4
2017-09-17T13:17:09.411Z,74.7
2017-09-17T13:18:10.816Z,76.4
2017-09-17T13:19:12.221Z,77.6
2017-09-17T13:20:13.769Z,78.2
2017-09-17T13:21:15.175Z,78.1
2017-09-17T13:22:16.580Z,78.3